createdAt,value
2019-02-17T00:00:20.178Z,58.77
2019-02-17T00:03:08.995Z,56.53
2019-02-17T00:05:38.459Z,58.87
2019-02-17T00:08:07.843Z,57.93
2019-02-17T00:10:37.183Z,58.93
2019-02-17T00:13:06.705Z,57.60
2019-02-17T00:15:36.141Z,60.10
2019-02-17T00:18:05.606Z,58.53
2019-02-17T00:20:34.963Z,60.70
2019-02-17T00:23:04.354Z,59.13
2019-02-17T00:25:33.799Z,60.93
2019-02-17T00:28:03.275Z,61.90
2019-02-17T00:30:32.700Z,61.77
2019-02-17T00:33:02.095Z,60.80
2019-02-17T00:35:32.069Z,63.03
2019-02-17T00:38:01.476Z,63.10
2019-02-17T00:40:30.922Z,62.00
2019-02-17T00:43:00.415Z,62.60
2019-02-17T00:45:29.769Z,60.93
2019-02-17T00:47:59.165Z,61.43
2019-02-17T00:50:28.537Z,61.27
2019-02-17T00:52:57.936Z,63.00
2019-02-17T00:55:27.428Z,63.90
2019-02-17T00:57:56.819Z,63.93
2019-02-17T01:00:26.328Z,67.30
2019-02-17T01:02:55.791Z,68.43
2019-02-17T01:05:25.578Z,66.27
2019-02-17T01:07:55.005Z,68.17
2019-02-17T01:10:24.367Z,65.97
2019-02-17T01:12:53.904Z,65.07
2019-02-17T01:15:23.336Z,67.90
2019-02-17T01:17:52.803Z,67.13
2019-02-17T01:20:22.157Z,69.43
2019-02-17T01:22:51.676Z,69.70
2019-02-17T01:25:21.023Z,71.90
2019-02-17T01:27:50.466Z,72.30
2019-02-17T01:30:19.823Z,71.67
2019-02-17T01:32:49.223Z,74.23
2019-02-17T01:35:18.674Z,76.50
2019-02-17T01:37:49.208Z,76.13
2019-02-17T01:40:18.635Z,77.30
2019-02-17T01:42:48.101Z,77.53
2019-02-17T01:45:17.751Z,74.13
2019-02-17T01:47:47.266Z,73.50
2019-02-17T01:50:16.703Z,72.53
2019-02-17T01:52:46.236Z,70.97
2019-02-17T01:55:15.664Z,71.53
2019-02-17T01:57:45.069Z,69.37
2019-02-17T02:00:15.870Z,70.73
2019-02-17T02:02:45.380Z,71.43
2019-02-17T02:05:14.958Z,71.27
2019-02-17T02:07:44.366Z,68.63
2019-02-17T02:10:13.909Z,73.07
2019-02-17T02:12:43.509Z,72.60
2019-02-17T02:15:13.180Z,72.23
2019-02-17T02:17:42.601Z,73.07
2019-02-17T02:20:13.052Z,74.90
2019-02-17T02:22:42.520Z,75.70
2019-02-17T02:25:13.596Z,77.43
2019-02-17T02:27:43.006Z,76.27
2019-02-17T02:30:13.781Z,76.70
2019-02-17T02:32:43.332Z,76.13
2019-02-17T02:35:13.034Z,79.17
2019-02-17T02:37:42.481Z,76.73
2019-02-17T02:40:11.992Z,76.80
2019-02-17T02:42:43.367Z,77.37
2019-02-17T02:45:12.871Z,75.23
2019-02-17T02:47:42.407Z,75.07
2019-02-17T02:50:12.331Z,76.03
2019-02-17T02:52:41.816Z,73.13
2019-02-17T02:55:11.384Z,76.07
2019-02-17T02:57:40.869Z,74.90
2019-02-17T03:00:12.040Z,77.70
2019-02-17T03:02:43.209Z,75.47
2019-02-17T03:05:15.477Z,78.37
2019-02-17T03:07:44.859Z,78.27
2019-02-17T03:10:14.242Z,78.87
2019-02-17T03:12:43.639Z,77.43
2019-02-17T03:15:26.128Z,75.67
2019-02-17T03:17:55.516Z,74.53
2019-02-17T03:20:39.372Z,78.20
2019-02-17T03:23:08.764Z,79.43
2019-02-17T03:25:38.237Z,78.57
2019-02-17T03:28:07.788Z,81.47
2019-02-17T03:30:37.938Z,81.37
2019-02-17T03:33:07.360Z,79.73
2019-02-17T03:35:37.340Z,78.70
2019-02-17T03:38:06.687Z,82.07
2019-02-17T03:40:36.085Z,83.40
2019-02-17T03:43:05.585Z,83.73
2019-02-17T03:45:35.660Z,83.43
2019-02-17T03:48:05.201Z,86.33
2019-02-17T03:50:34.592Z,84.70
2019-02-17T03:53:03.952Z,89.57
2019-02-17T03:55:33.419Z,91.70
2019-02-17T03:58:02.784Z,92.93
2019-02-17T04:00:32.195Z,93.13
2019-02-17T04:03:01.701Z,92.23
2019-02-17T04:05:32.330Z,94.83
2019-02-17T04:08:01.852Z,94.37
2019-02-17T04:10:31.246Z,92.27
2019-02-17T04:13:00.758Z,94.00
2019-02-17T04:15:30.297Z,91.37
2019-02-17T04:17:59.888Z,93.07
2019-02-17T04:20:29.369Z,92.93
2019-02-17T04:22:58.889Z,96.17
2019-02-17T04:25:28.485Z,93.70
2019-02-17T04:27:58.117Z,96.63
2019-02-17T04:30:29.540Z,96.93
2019-02-17T04:32:58.898Z,100.27
2019-02-17T04:35:28.651Z,100.83
2019-02-17T04:37:59.737Z,101.20
2019-02-17T04:40:29.227Z,105.20
2019-02-17T04:42:58.711Z,101.57
2019-02-17T04:45:28.287Z,100.90
2019-02-17T04:47:57.796Z,103.33
2019-02-17T04:50:27.202Z,104.50
2019-02-17T04:52:56.627Z,105.63
2019-02-17T04:55:27.652Z,103.87
2019-02-17T04:57:57.022Z,100.67
2019-02-17T05:00:27.222Z,100.63
2019-02-17T05:02:56.777Z,104.13
2019-02-17T05:05:26.245Z,99.90
2019-02-17T05:07:55.696Z,98.50
2019-02-17T05:10:25.165Z,96.00
2019-02-17T05:12:54.760Z,95.73
2019-02-17T05:15:24.156Z,96.83
2019-02-17T05:17:53.621Z,95.90
2019-02-17T05:20:23.028Z,94.53
2019-02-17T05:22:52.726Z,92.53
2019-02-17T05:25:22.218Z,91.00
2019-02-17T05:27:51.623Z,93.43
2019-02-17T05:30:21.095Z,89.53
2019-02-17T05:32:50.488Z,91.63
2019-02-17T05:35:19.909Z,89.00
2019-02-17T05:37:49.613Z,87.70
2019-02-17T05:40:19.070Z,85.67
2019-02-17T05:42:48.536Z,83.93
2019-02-17T05:45:17.995Z,85.27
2019-02-17T05:47:47.404Z,83.47
2019-02-17T05:50:16.911Z,82.17
2019-02-17T05:52:46.331Z,78.27
2019-02-17T05:55:15.922Z,79.67
2019-02-17T05:57:45.406Z,77.63
2019-02-17T06:00:16.158Z,78.60
2019-02-17T06:02:45.781Z,77.13
2019-02-17T06:05:15.242Z,76.40
2019-02-17T06:07:44.651Z,77.17
2019-02-17T06:10:14.323Z,73.23
2019-02-17T06:12:43.835Z,73.97
2019-02-17T06:15:13.206Z,72.70
2019-02-17T06:17:42.679Z,74.77
2019-02-17T06:20:12.313Z,76.30
2019-02-17T06:22:41.807Z,75.00
2019-02-17T06:25:11.434Z,74.67
2019-02-17T06:27:41.346Z,76.43
2019-02-17T06:30:10.926Z,71.13
2019-02-17T06:32:40.443Z,77.20
2019-02-17T06:35:10.246Z,74.77
2019-02-17T06:37:39.686Z,73.10
2019-02-17T06:40:09.387Z,70.67
2019-02-17T06:42:38.787Z,66.97
2019-02-17T06:45:09.744Z,67.33
2019-02-17T06:47:39.109Z,68.80
2019-02-17T06:50:10.108Z,66.30
2019-02-17T06:52:39.467Z,67.00
2019-02-17T06:55:28.844Z,65.50
2019-02-17T06:57:58.239Z,64.40
2019-02-17T07:00:29.262Z,61.53
2019-02-17T07:02:58.667Z,62.47
2019-02-17T07:05:29.882Z,58.70
2019-02-17T07:07:59.300Z,60.63
2019-02-17T07:10:28.767Z,59.07
2019-02-17T07:12:58.371Z,56.77
2019-02-17T07:15:27.895Z,55.67
2019-02-17T07:17:59.093Z,54.97
2019-02-17T07:20:28.362Z,55.37
2019-02-17T07:22:57.783Z,50.87
2019-02-17T07:25:30.060Z,52.23
2019-02-17T07:27:58.284Z,49.77
2019-02-17T07:30:27.669Z,48.47
2019-02-17T07:32:57.066Z,48.40
2019-02-17T07:35:26.594Z,43.27
2019-02-17T07:37:56.046Z,42.53
2019-02-17T07:40:27.000Z,42.23
2019-02-17T07:42:56.446Z,42.80
2019-02-17T07:45:25.878Z,39.77
2019-02-17T07:47:55.349Z,41.67
2019-02-17T07:50:24.883Z,39.37
2019-02-17T07:52:54.452Z,40.10
2019-02-17T07:55:24.026Z,39.93
2019-02-17T07:57:53.581Z,35.97
2019-02-17T08:00:22.947Z,38.80
2019-02-17T08:02:53.898Z,39.13
2019-02-17T08:05:23.429Z,38.37
2019-02-17T08:07:52.802Z,36.60
2019-02-17T08:10:22.868Z,34.37
2019-02-17T08:12:52.477Z,34.97
2019-02-17T08:15:21.938Z,34.40
2019-02-17T08:17:51.558Z,35.87
2019-02-17T08:20:25.540Z,33.57
2019-02-17T08:22:55.010Z,34.03
2019-02-17T08:25:24.400Z,34.23
2019-02-17T08:27:53.798Z,34.73
2019-02-17T08:30:23.174Z,32.37
2019-02-17T08:32:52.567Z,32.10
2019-02-17T08:35:21.923Z,32.63
2019-02-17T08:37:53.044Z,32.00
2019-02-17T08:40:22.486Z,30.10
2019-02-17T08:42:52.205Z,27.73
2019-02-17T08:45:21.608Z,28.57
2019-02-17T08:47:51.187Z,26.67
2019-02-17T08:50:20.582Z,26.53
2019-02-17T08:52:51.582Z,27.23
2019-02-17T08:55:21.115Z,28.00
2019-02-17T08:57:50.801Z,27.00
2019-02-17T09:00:20.300Z,26.90
2019-02-17T09:02:49.780Z,25.57
2019-02-17T09:05:19.237Z,26.70
2019-02-17T09:07:48.732Z,25.93
2019-02-17T09:10:18.172Z,25.50
2019-02-17T09:12:47.776Z,25.67
2019-02-17T09:15:17.325Z,26.77
2019-02-17T09:17:46.734Z,27.23
2019-02-17T09:20:16.168Z,27.23
2019-02-17T09:22:45.651Z,25.90
2019-02-17T09:25:15.229Z,25.67
2019-02-17T09:27:44.694Z,25.90
2019-02-17T09:30:16.487Z,25.00
2019-02-17T09:32:45.958Z,25.47
2019-02-17T09:35:15.390Z,25.80
2019-02-17T09:37:44.936Z,25.50
2019-02-17T09:40:14.434Z,23.60
2019-02-17T09:42:43.899Z,25.10
2019-02-17T09:45:15.171Z,22.83
2019-02-17T09:47:44.814Z,23.97
2019-02-17T09:50:14.679Z,24.50
2019-02-17T09:52:44.121Z,23.10
2019-02-17T09:55:13.625Z,23.87
2019-02-17T09:57:43.028Z,24.20
2019-02-17T10:00:16.285Z,24.50
2019-02-17T10:02:45.762Z,23.87
2019-02-17T10:05:15.546Z,23.40
2019-02-17T10:07:45.102Z,23.93
2019-02-17T10:10:19.347Z,23.67
2019-02-17T10:12:48.936Z,24.97
2019-02-17T10:15:18.561Z,23.97
2019-02-17T10:17:48.389Z,24.03
2019-02-17T10:20:18.036Z,23.23
2019-02-17T10:22:47.453Z,24.03
2019-02-17T10:25:16.900Z,23.53
2019-02-17T10:27:46.516Z,23.03
2019-02-17T10:30:17.443Z,23.57
2019-02-17T10:32:46.998Z,22.80
2019-02-17T10:35:16.420Z,22.23
2019-02-17T10:37:45.981Z,22.70
2019-02-17T10:40:17.034Z,22.63
2019-02-17T10:42:46.547Z,21.63
2019-02-17T10:45:16.041Z,21.77
2019-02-17T10:47:45.570Z,21.43
2019-02-17T10:50:15.404Z,23.00
2019-02-17T10:52:44.888Z,22.53
2019-02-17T10:55:14.672Z,24.20
2019-02-17T10:57:44.210Z,23.57
2019-02-17T11:00:16.863Z,22.00
2019-02-17T11:02:47.609Z,21.87
2019-02-17T11:05:17.365Z,21.93
2019-02-17T11:07:46.755Z,22.00
2019-02-17T11:10:16.179Z,22.47
2019-02-17T11:12:45.656Z,22.33
2019-02-17T11:15:20.087Z,21.93
2019-02-17T11:17:49.546Z,22.17
2019-02-17T11:20:18.972Z,21.93
2019-02-17T11:23:01.559Z,22.40
2019-02-17T11:25:30.996Z,21.63
2019-02-17T11:28:02.032Z,21.20
2019-02-17T11:30:31.431Z,22.03
2019-02-17T11:33:00.856Z,22.37
2019-02-17T11:35:30.907Z,23.73
2019-02-17T11:38:00.473Z,21.70
2019-02-17T11:40:30.023Z,22.97
2019-02-17T11:42:59.501Z,22.60
2019-02-17T11:45:29.545Z,20.90
2019-02-17T11:47:58.947Z,21.33
2019-02-17T11:50:28.403Z,21.13
2019-02-17T11:52:57.871Z,21.00
2019-02-17T11:55:28.859Z,21.73
2019-02-17T11:57:58.317Z,21.17
2019-02-17T12:00:27.851Z,21.43
2019-02-17T12:03:07.291Z,21.23
2019-02-17T12:05:28.459Z,22.10
2019-02-17T12:07:58.006Z,22.13
2019-02-17T12:10:27.435Z,21.87
2019-02-17T12:12:56.836Z,22.27
2019-02-17T12:15:26.269Z,22.00
2019-02-17T12:17:55.735Z,21.97
2019-02-17T12:20:35.603Z,20.70
2019-02-17T12:23:12.808Z,21.57
2019-02-17T12:25:56.249Z,22.00
2019-02-17T12:28:27.407Z,21.70
2019-02-17T12:30:56.763Z,22.90
2019-02-17T12:33:26.951Z,21.27
2019-02-17T12:35:56.317Z,23.10
2019-02-17T12:38:25.735Z,22.87
2019-02-17T12:40:55.377Z,23.40
2019-02-17T12:43:24.869Z,22.70
2019-02-17T12:45:54.307Z,22.13
2019-02-17T12:48:23.834Z,21.97
2019-02-17T12:50:53.288Z,22.17
2019-02-17T12:53:22.666Z,24.60
2019-02-17T12:55:52.217Z,22.80
2019-02-17T12:58:29.715Z,22.07
2019-02-17T13:00:53.092Z,23.10
2019-02-17T13:03:28.435Z,22.53
2019-02-17T13:05:53.655Z,21.77
2019-02-17T13:08:23.382Z,22.63
2019-02-17T13:10:52.870Z,22.77
2019-02-17T13:13:22.246Z,24.57
2019-02-17T13:15:51.651Z,23.30
2019-02-17T13:18:21.719Z,23.67
2019-02-17T13:20:51.119Z,23.80
2019-02-17T13:23:20.581Z,23.63
2019-02-17T13:25:50.130Z,24.60
2019-02-17T13:28:32.707Z,24.27
2019-02-17T13:31:03.808Z,22.53
2019-02-17T13:33:39.234Z,24.23
2019-02-17T13:36:04.941Z,23.73
2019-02-17T13:38:34.410Z,24.03
2019-02-17T13:41:03.846Z,22.87
2019-02-17T13:43:33.250Z,23.33
2019-02-17T13:46:15.407Z,23.73
2019-02-17T13:48:44.864Z,24.57
2019-02-17T13:51:14.864Z,23.20
2019-02-17T13:53:44.305Z,23.77
2019-02-17T13:56:13.707Z,23.83
2019-02-17T13:58:44.651Z,27.03
2019-02-17T14:01:14.876Z,22.40
2019-02-17T14:03:48.800Z,23.57
2019-02-17T14:06:16.424Z,23.40
2019-02-17T14:08:45.935Z,22.87
2019-02-17T14:11:15.411Z,21.63
2019-02-17T14:13:44.866Z,22.00
2019-02-17T14:16:14.373Z,22.03
2019-02-17T14:18:43.846Z,21.93
2019-02-17T14:21:13.347Z,22.17
2019-02-17T14:23:42.704Z,23.00
2019-02-17T14:26:12.135Z,21.90
2019-02-17T14:28:41.583Z,22.57
2019-02-17T14:31:11.059Z,21.40
2019-02-17T14:33:40.559Z,22.37
2019-02-17T14:36:09.991Z,22.37
2019-02-17T14:38:39.477Z,22.53
2019-02-17T14:41:08.854Z,23.60
2019-02-17T14:43:38.325Z,23.10
2019-02-17T14:46:07.832Z,23.57
2019-02-17T14:48:37.239Z,23.27
2019-02-17T14:51:06.683Z,22.90
2019-02-17T14:53:36.080Z,23.83
2019-02-17T14:56:05.591Z,23.40
2019-02-17T14:58:35.047Z,23.77
2019-02-17T15:01:04.552Z,23.00
2019-02-17T15:03:34.093Z,24.20
2019-02-17T15:06:03.600Z,23.47
2019-02-17T15:08:33.220Z,23.53
2019-02-17T15:11:02.661Z,23.93
2019-02-17T15:13:32.191Z,23.03
2019-02-17T15:16:01.563Z,22.67
2019-02-17T15:18:31.116Z,21.30
2019-02-17T15:21:00.712Z,22.07
2019-02-17T15:23:30.111Z,21.57
2019-02-17T15:25:59.619Z,21.67
2019-02-17T15:28:30.095Z,21.43
2019-02-17T15:30:59.491Z,52.80
2019-02-17T15:33:28.959Z,24.97
2019-02-17T15:35:58.432Z,24.73
2019-02-17T15:38:27.835Z,21.00
2019-02-17T15:40:57.233Z,19.83
2019-02-17T15:43:26.813Z,20.70
2019-02-17T15:45:56.277Z,18.90
2019-02-17T15:48:25.683Z,20.00
2019-02-17T15:50:55.078Z,20.00
2019-02-17T15:53:24.507Z,18.40
2019-02-17T15:55:53.979Z,19.33
2019-02-17T15:58:25.154Z,20.13
2019-02-17T16:00:54.680Z,26.20
2019-02-17T16:03:24.056Z,42.20
2019-02-17T16:05:53.739Z,38.47
2019-02-17T16:08:23.144Z,37.73
2019-02-17T16:10:52.621Z,35.43
2019-02-17T16:13:22.106Z,34.27
2019-02-17T16:15:51.611Z,25.03
2019-02-17T16:18:21.076Z,29.47
2019-02-17T16:20:50.530Z,36.27
2019-02-17T16:23:20.192Z,40.47
2019-02-17T16:25:49.902Z,29.87
2019-02-17T16:28:19.571Z,34.33
2019-02-17T16:30:48.931Z,30.30
2019-02-17T16:33:18.471Z,28.40
2019-02-17T16:35:47.838Z,25.23
2019-02-17T16:38:17.421Z,24.30
2019-02-17T16:40:46.875Z,23.93
2019-02-17T16:43:16.331Z,22.90
2019-02-17T16:45:47.251Z,21.70
2019-02-17T16:48:16.713Z,21.90
2019-02-17T16:50:46.217Z,21.47
2019-02-17T16:53:15.703Z,25.07
2019-02-17T16:55:45.178Z,26.27
2019-02-17T16:58:14.614Z,26.03
2019-02-17T17:00:44.099Z,32.63
2019-02-17T17:03:13.664Z,36.83
2019-02-17T17:05:43.063Z,38.00
2019-02-17T17:08:12.419Z,45.70
2019-02-17T17:10:41.919Z,59.30
2019-02-17T17:13:11.477Z,48.63
2019-02-17T17:15:41.049Z,28.13
2019-02-17T17:18:10.611Z,28.97
2019-02-17T17:20:40.496Z,31.00
2019-02-17T17:23:11.564Z,27.70
2019-02-17T17:25:54.600Z,25.80
2019-02-17T17:28:25.869Z,25.13
2019-02-17T17:30:56.780Z,23.97
2019-02-17T17:33:26.275Z,23.10
2019-02-17T17:35:55.934Z,23.03
2019-02-17T17:38:25.299Z,22.30
2019-02-17T17:40:55.248Z,23.83
2019-02-17T17:43:24.723Z,22.37
2019-02-17T17:45:54.148Z,23.83
2019-02-17T17:48:23.503Z,23.87
2019-02-17T17:50:53.027Z,22.90
2019-02-17T17:53:22.467Z,23.20
2019-02-17T17:55:51.970Z,22.63
2019-02-17T17:58:21.420Z,22.70
2019-02-17T18:00:50.831Z,21.63
2019-02-17T18:03:20.359Z,22.90
2019-02-17T18:05:51.371Z,23.53
2019-02-17T18:08:20.737Z,24.33
2019-02-17T18:10:50.261Z,22.90
2019-02-17T18:13:21.885Z,23.17
2019-02-17T18:15:50.805Z,23.70
2019-02-17T18:18:20.163Z,25.10
2019-02-17T18:20:49.560Z,24.50
2019-02-17T18:23:18.991Z,22.90
2019-02-17T18:25:48.413Z,24.17
2019-02-17T18:28:17.837Z,22.77
2019-02-17T18:30:47.349Z,23.27
2019-02-17T18:33:16.882Z,23.63
2019-02-17T18:35:47.204Z,23.30
2019-02-17T18:38:16.678Z,24.83
2019-02-17T18:40:47.851Z,24.00
2019-02-17T18:43:17.290Z,23.77
2019-02-17T18:45:46.908Z,23.30
2019-02-17T18:48:16.387Z,24.40
2019-02-17T18:50:45.906Z,23.60
2019-02-17T18:53:15.561Z,23.63
2019-02-17T18:55:45.128Z,21.93
2019-02-17T18:58:14.583Z,23.40
2019-02-17T19:00:43.944Z,23.60
2019-02-17T19:03:13.352Z,23.90
2019-02-17T19:05:42.957Z,22.90
2019-02-17T19:08:12.504Z,23.60
2019-02-17T19:10:41.931Z,23.87
2019-02-17T19:13:11.425Z,24.17
2019-02-17T19:15:40.772Z,27.07
2019-02-17T19:18:10.256Z,25.30
2019-02-17T19:20:41.045Z,27.67
2019-02-17T19:23:10.515Z,30.40
2019-02-17T19:25:39.876Z,30.50
2019-02-17T19:28:09.283Z,25.50
2019-02-17T19:30:38.843Z,24.90
2019-02-17T19:33:08.359Z,26.27
2019-02-17T19:35:41.920Z,24.97
2019-02-17T19:38:08.948Z,26.00
2019-02-17T19:40:38.351Z,25.00
2019-02-17T19:43:07.749Z,25.73
2019-02-17T19:45:37.219Z,24.87
2019-02-17T19:48:06.715Z,27.33
2019-02-17T19:50:36.893Z,25.47
2019-02-17T19:53:06.373Z,24.77
2019-02-17T19:55:35.786Z,26.40
2019-02-17T19:58:05.264Z,26.70
2019-02-17T20:00:34.657Z,28.00
2019-02-17T20:03:09.227Z,26.97
2019-02-17T20:05:51.668Z,26.90
2019-02-17T20:08:14.212Z,25.67
2019-02-17T20:10:43.883Z,26.87
2019-02-17T20:13:13.247Z,26.33
2019-02-17T20:15:42.723Z,25.37
2019-02-17T20:18:12.139Z,25.40
2019-02-17T20:20:41.666Z,27.50
2019-02-17T20:23:11.224Z,29.07
2019-02-17T20:25:40.625Z,27.40
2019-02-17T20:28:10.103Z,26.97
2019-02-17T20:30:39.652Z,28.37
2019-02-17T20:33:09.108Z,28.30
2019-02-17T20:35:38.579Z,29.13
2019-02-17T20:38:08.210Z,30.40
2019-02-17T20:40:37.640Z,32.07
2019-02-17T20:43:07.078Z,31.80
2019-02-17T20:45:36.550Z,32.33
2019-02-17T20:48:06.122Z,30.03
2019-02-17T20:50:35.593Z,32.40
2019-02-17T20:53:05.018Z,31.27
2019-02-17T20:55:35.400Z,31.30
2019-02-17T20:58:04.856Z,31.00
2019-02-17T21:00:34.833Z,32.53
2019-02-17T21:03:05.882Z,32.03
2019-02-17T21:05:35.348Z,33.17
2019-02-17T21:08:04.704Z,31.40
2019-02-17T21:10:34.329Z,31.57
2019-02-17T21:13:03.751Z,31.07
2019-02-17T21:15:33.163Z,31.10
2019-02-17T21:18:02.671Z,29.13
2019-02-17T21:20:32.519Z,29.90
2019-02-17T21:23:01.884Z,28.57
2019-02-17T21:25:31.273Z,29.50
2019-02-17T21:28:00.618Z,29.60
2019-02-17T21:30:30.019Z,29.80
2019-02-17T21:32:59.411Z,29.17
2019-02-17T21:35:28.996Z,28.87
2019-02-17T21:37:58.455Z,28.57
2019-02-17T21:40:27.932Z,28.43
2019-02-17T21:42:57.403Z,28.70
2019-02-17T21:45:26.796Z,30.43
2019-02-17T21:47:57.724Z,31.67
2019-02-17T21:50:27.128Z,33.60
2019-02-17T21:52:56.757Z,33.63
2019-02-17T21:55:26.691Z,31.13
2019-02-17T21:57:56.082Z,29.40
2019-02-17T22:00:25.563Z,30.00
2019-02-17T22:02:55.018Z,27.57
2019-02-17T22:05:24.636Z,30.10
2019-02-17T22:07:54.201Z,28.57
2019-02-17T22:10:23.693Z,27.63
2019-02-17T22:12:53.155Z,27.10
2019-02-17T22:15:23.860Z,27.40
2019-02-17T22:17:53.324Z,26.67
2019-02-17T22:20:25.792Z,27.10
2019-02-17T22:22:55.334Z,27.40
2019-02-17T22:25:25.835Z,25.50
2019-02-17T22:27:55.328Z,27.37
2019-02-17T22:30:24.919Z,25.50
2019-02-17T22:32:54.318Z,26.50
2019-02-17T22:35:23.708Z,25.13
2019-02-17T22:37:54.043Z,24.50
2019-02-17T22:40:23.463Z,25.20
2019-02-17T22:42:52.923Z,24.57
2019-02-17T22:45:22.371Z,24.47
2019-02-17T22:47:53.351Z,24.97
2019-02-17T22:50:22.763Z,25.37
2019-02-17T22:52:52.147Z,25.40
2019-02-17T22:55:21.595Z,25.43
2019-02-17T22:57:51.046Z,25.40
2019-02-17T23:00:37.315Z,25.00
2019-02-17T23:03:06.975Z,25.00
2019-02-17T23:05:36.846Z,24.50
2019-02-17T23:08:06.292Z,23.13
2019-02-17T23:10:35.713Z,23.27
2019-02-17T23:13:05.243Z,23.57
2019-02-17T23:15:34.661Z,23.87
2019-02-17T23:18:04.177Z,23.97
2019-02-17T23:20:33.638Z,23.67
2019-02-17T23:23:03.295Z,24.83
2019-02-17T23:25:32.743Z,24.07
2019-02-17T23:28:02.139Z,24.37
2019-02-17T23:30:31.508Z,24.13
2019-02-17T23:33:00.926Z,22.67
2019-02-17T23:35:30.382Z,23.43
2019-02-17T23:37:59.787Z,23.10
2019-02-17T23:40:29.293Z,22.53
2019-02-17T23:42:58.778Z,23.13
2019-02-17T23:45:28.321Z,22.43
2019-02-17T23:47:57.742Z,22.50
2019-02-17T23:50:27.283Z,21.43
2019-02-17T23:52:56.648Z,22.53
2019-02-17T23:55:26.046Z,22.43
2019-02-17T23:57:55.487Z,22.10
